ZLT weather

La Tabatière Airport
La Tabatière, Quebec, Canada

Public forecast

Using degrees Celsius for public forecast. Weather courtesy of forecast.io.

METAR (pilot weather report)

Closest report is Lourdes de Blanc Sablon Airport, 76.8 nm (142.3 km) ENE. Retrieved 2019/09/24 07:00 UTC (37 minutes ago):

CYBX 240700Z 34007KT 15SM FEW040 05/02 A2969 RMK SC2 SLP055

TAF (pilot weather forecast)

Closest forecast is Lourdes de Blanc Sablon Airport, 76.8 nm (142.3 km) ENE. Retrieved 2019/09/24 08:00 UTC (0 seconds ago):

TAF CYBX 240738Z 2408/2420 34010G20KT P6SM SCT020 TEMPO 2408/2415 BKN020 FM241500 33010G20KT P6SM FEW040 BECMG 2418/2420 02008KT RMK NXT FCST BY 241400Z